• Join FlightAware (Why Join?)
  • Login
  • US Flag 
12:00AM EDT


 

Airport Tracker/Info


-or-


 

Live Flight TrackerFlight Track Log ✈ UAL4498 ✈ 25-Apr-2013 ✈ KIND - KCLE

Flight Track Log - Related Links

Times and Time Zones

All times are in EDT time to prevent confusion due to time zone crossing. See the UAL4498 flight status page for this flight to view local times or setup timezone preferences in your user account.

Time Position Orientation Groundspeed Altitude Reporting Facility
EDT Latitude Longitude Course Direction KTS MPH feet Rate Location/Type
02:14PM 39.7000 -86.3000 218° Southwest 156 180 1,500  Level Indianapolis TRACON
02:15PM 39.6667 -86.3333 218° Southwest 187 215 4,100 3,240 Climbing Indianapolis TRACON
02:16PM 39.6142 -86.3481 192° South 217 250 7,400 3,000 Climbing Indianapolis Center
02:17PM 39.5819 -86.2714 119° Southeast 279 321 10,300 1,980 Climbing Indianapolis Center
02:18PM 39.6150 -86.1572 69° East 339 390 11,600 1,560 Climbing Indianapolis Center
02:19PM 39.6539 -86.0264 69° East 386 444 13,600 2,220 Climbing Indianapolis Center
02:20PM 39.7006 -85.8672 69° East 404 465 16,200 2,160 Climbing Indianapolis Center
02:21PM 39.7419 -85.7283 69° East 409 471 18,100 1,740 Climbing Indianapolis Center
02:22PM 39.7836 -85.5861 69° East 420 483 19,900 1,560 Climbing Indianapolis Center
02:23PM 39.8272 -85.4372 69° East 435 501 21,400 1,380 Climbing Indianapolis Center
02:24PM 39.8722 -85.2833 69° East 451 519 22,800 720 Climbing Indianapolis Center
02:25PM 39.9058 -85.1122 76° East 483 556 23,000 60 Climbing Indianapolis Center
02:26PM 39.9372 -84.9039 79° East 498 573 23,000  Level Indianapolis Center
02:27PM 39.9731 -84.7494 73° East 491 565 23,000  Level Indianapolis Center
02:28PM 40.0233 -84.5803 69° East 496 571 23,000  Level Indianapolis Center
02:29PM 40.0825 -84.3808 69° East 499 574 23,000  Level Indianapolis Center
02:30PM 40.1314 -84.2125 69° East 489 563 23,000  Level Indianapolis Center
02:31PM 40.1794 -84.0417 70° East 495 570 23,000  Level Indianapolis Center
02:32PM 40.2297 -83.8697 69° East 499 574 23,000 -180 Level Indianapolis Center
02:33PM 40.2775 -83.7000 70° East 491 565 22,700 -660 Descending Indianapolis Center
02:34PM 40.3250 -83.5336 69° East 483 556 21,700 -1,020 Descending Indianapolis Center
02:35PM 40.3714 -83.3658 70° East 484 557 20,700 -1,020 Descending Indianapolis Center
02:36PM 40.4178 -83.2056 69° East 467 537 19,700 -840 Descending Indianapolis Center
02:37PM 40.4939 -83.0750 52° Northeast 445 512 19,100 -780 Descending Indianapolis Center
02:38PM 40.5925 -82.9475 44° Northeast 443 510 18,100 -1,140 Descending Indianapolis Center
02:39PM 40.6528 -82.8711 44° Northeast 427 491 17,100 -1,500 Descending Cleveland Center
02:40PM 40.7364 -82.7617 45° Northeast 417 480 15,500 -1,680 Descending Cleveland Center
02:41PM 40.8047 -82.6761 43° Northeast 419 482 14,200 -1,740 Descending Cleveland Center
02:41PM 40.8197 -82.6547 47° Northeast 417 480 13,800 -2,400 Descending Cleveland Center
02:42PM 40.8986 -82.5500 45° Northeast 409 471 11,200 -1,920 Descending Cleveland Center
02:43PM 40.9733 -82.4478 46° Northeast 396 456 10,000 -600 Descending Cleveland Center
02:44PM 41.0606 -82.3317 45° Northeast 374 430 10,000  Level Cleveland Center
02:45PM 41.1203 -82.2506 46° Northeast 374 430 10,000  Level Cleveland Center
02:46PM 41.2094 -82.1289 46° Northeast 384 442 10,000 -180 Level Cleveland Center
02:47PM 41.2525 -82.0358 58° Northeast 352 405 9,700 -780 Descending Cleveland Center
02:48PM 41.3017 -81.9292 58° Northeast 293 337 8,500 -1,020 Descending Cleveland Center
02:49PM 41.3403 -81.8442 59° Northeast 298 343 7,700 -1,020 Descending Cleveland Center
02:50PM 41.3850 -81.7539 57° Northeast 291 335 6,600 -1,200 Descending Cleveland Center
02:51PM 41.4400 -81.6522 54° Northeast 280 322 5,100 -1,200 Descending Cleveland Center
02:52PM 41.4925 -81.6172 27° Northeast 219 252 4,000 -720 Descending Cleveland Center
02:54PM 41.4393 -81.7515 242° Southwest  Level FlightAware Approximate
02:54PM 41.4956 -81.7253 242° Southwest 164 189 3,000  Level Cleveland Center
02:55PM 41.4661 -81.7692 228° Southwest 159 183 2,500 -540 Descending Cleveland Center